sensor_id;sensor_type;location;lat;lon;timestamp;pressure;altitude;pressure_sealevel;temperature;humidity
21203;BME280;10759;51.982;9.232;2024-01-07T00:01:10;100372.19;;;0.76;100.00
21203;BME280;10759;51.982;9.232;2024-01-07T00:03:40;100375.75;;;1.00;100.00
21203;BME280;10759;51.982;9.232;2024-01-07T00:06:11;100383.63;;;0.77;100.00
21203;BME280;10759;51.982;9.232;2024-01-07T00:08:41;100368.69;;;0.77;100.00
21203;BME280;10759;51.982;9.232;2024-01-07T00:11:09;100380.13;;;0.90;100.00
21203;BME280;10759;51.982;9.232;2024-01-07T00:13:45;100378.41;;;0.97;100.00
21203;BME280;10759;51.982;9.232;2024-01-07T00:16:14;100360.81;;;0.94;100.00
21203;BME280;10759;51.982;9.232;2024-01-07T00:18:42;100394.19;;;0.80;100.00
21203;BME280;10759;51.982;9.232;2024-01-07T00:21:11;100390.69;;;0.93;100.00
21203;BME280;10759;51.982;9.232;2024-01-07T00:23:39;100397.75;;;0.91;100.00
21203;BME280;10759;51.982;9.232;2024-01-07T00:26:07;100391.59;;;1.06;100.00
21203;BME280;10759;51.982;9.232;2024-01-07T00:28:36;100395.09;;;0.93;100.00
21203;BME280;10759;51.982;9.232;2024-01-07T00:31:05;100401.25;;;0.87;100.00
21203;BME280;10759;51.982;9.232;2024-01-07T00:33:35;100388.97;;;1.01;100.00
21203;BME280;10759;51.982;9.232;2024-01-07T00:36:09;100407.28;;;0.51;100.00
21203;BME280;10759;51.982;9.232;2024-01-07T00:38:37;100402.91;;;0.59;100.00
21203;BME280;10759;51.982;9.232;2024-01-07T00:41:07;100405.56;;;0.59;100.00
21203;BME280;10759;51.982;9.232;2024-01-07T00:43:35;100405.59;;;0.70;100.00
21203;BME280;10759;51.982;9.232;2024-01-07T00:46:04;100406.50;;;0.81;100.00
21203;BME280;10759;51.982;9.232;2024-01-07T00:48:33;100387.91;;;0.36;100.00
21203;BME280;10759;51.982;9.232;2024-01-07T00:51:01;100411.72;;;0.55;100.00
21203;BME280;10759;51.982;9.232;2024-01-07T00:53:32;100424.09;;;0.77;100.00
21203;BME280;10759;51.982;9.232;2024-01-07T00:56:00;100417.03;;;0.73;100.00
21203;BME280;10759;51.982;9.232;2024-01-07T00:58:29;100424.94;;;0.62;100.00
21203;BME280;10759;51.982;9.232;2024-01-07T01:00:59;100428.38;;;0.45;100.00
21203;BME280;10759;51.982;9.232;2024-01-07T01:03:32;100428.47;;;0.74;100.00
21203;BME280;10759;51.982;9.232;2024-01-07T01:06:05;100433.66;;;0.51;100.00
21203;BME280;10759;51.982;9.232;2024-01-07T01:08:35;100440.63;;;0.30;100.00
21203;BME280;10759;51.982;9.232;2024-01-07T01:11:03;100445.03;;;0.30;100.00
21203;BME280;10759;51.982;9.232;2024-01-07T01:13:32;100442.41;;;0.40;100.00
21203;BME280;10759;51.982;9.232;2024-01-07T01:15:59;100455.63;;;0.42;100.00
21203;BME280;10759;51.982;9.232;2024-01-07T01:18:31;100445.22;;;0.82;100.00
21203;BME280;10759;51.982;9.232;2024-01-07T01:20:59;100448.72;;;0.78;100.00
21203;BME280;10759;51.982;9.232;2024-01-07T01:23:28;100459.09;;;0.35;100.00
21203;BME280;10759;51.982;9.232;2024-01-07T01:25:57;100460.81;;;0.28;100.00
21203;BME280;10759;51.982;9.232;2024-01-07T01:28:25;100457.19;;;0.06;100.00
21203;BME280;10759;51.982;9.232;2024-01-07T01:30:55;100466.03;;;0.17;100.00
21203;BME280;10759;51.982;9.232;2024-01-07T01:33:23;100462.53;;;0.25;100.00
21203;BME280;10759;51.982;9.232;2024-01-07T01:35:52;100465.19;;;0.29;100.00
21203;BME280;10759;51.982;9.232;2024-01-07T01:38:21;100467.09;;;0.58;100.00
21203;BME280;10759;51.982;9.232;2024-01-07T01:40:52;100476.59;;;0.24;100.00
21203;BME280;10759;51.982;9.232;2024-01-07T01:43:24;100474.94;;;0.44;100.00
21203;BME280;10759;51.982;9.232;2024-01-07T01:45:53;100485.41;;;0.29;100.00
21203;BME280;10759;51.982;9.232;2024-01-07T01:48:22;100487.97;;;0.10;100.00
21203;BME280;10759;51.982;9.232;2024-01-07T01:50:55;100495.91;;;0.19;100.00
21203;BME280;10759;51.982;9.232;2024-01-07T01:53:26;100492.25;;;-0.03;100.00
21203;BME280;10759;51.982;9.232;2024-01-07T01:55:59;100507.94;;;-0.18;100.00
21203;BME280;10759;51.982;9.232;2024-01-07T01:58:29;100497.25;;;-0.38;100.00
21203;BME280;10759;51.982;9.232;2024-01-07T02:01:00;100504.41;;;-0.25;100.00
21203;BME280;10759;51.982;9.232;2024-01-07T02:03:30;100506.97;;;-0.31;100.00
21203;BME280;10759;51.982;9.232;2024-01-07T02:05:58;100496.47;;;-0.29;100.00
21203;BME280;10759;51.982;9.232;2024-01-07T02:08:32;100507.09;;;-0.15;100.00
21203;BME280;10759;51.982;9.232;2024-01-07T02:11:15;100516.59;;;-0.34;100.00
21203;BME280;10759;51.982;9.232;2024-01-07T02:13:49;100505.16;;;-0.38;100.00
21203;BME280;10759;51.982;9.232;2024-01-07T02:16:17;100510.59;;;-0.16;100.00
21203;BME280;10759;51.982;9.232;2024-01-07T02:18:45;100520.38;;;0.02;100.00
21203;BME280;10759;51.982;9.232;2024-01-07T02:21:13;100517.66;;;-0.12;100.00
21203;BME280;10759;51.982;9.232;2024-01-07T02:23:46;100516.63;;;-0.30;100.00
21203;BME280;10759;51.982;9.232;2024-01-07T02:26:15;100529.81;;;-0.28;100.00
21203;BME280;10759;51.982;9.232;2024-01-07T02:28:43;100528.94;;;-0.29;100.00
21203;BME280;10759;51.982;9.232;2024-01-07T02:31:14;100526.31;;;-0.26;100.00
21203;BME280;10759;51.982;9.232;2024-01-07T02:33:48;100516.78;;;-0.14;100.00
21203;BME280;10759;51.982;9.232;2024-01-07T02:36:16;100520.31;;;-0.12;100.00
21203;BME280;10759;51.982;9.232;2024-01-07T02:38:45;100545.75;;;-0.14;100.00
21203;BME280;10759;51.982;9.232;2024-01-07T02:41:13;100543.81;;;-0.32;100.00
21203;BME280;10759;51.982;9.232;2024-01-07T02:43:43;100536.88;;;-0.24;100.00
21203;BME280;10759;51.982;9.232;2024-01-07T02:46:11;100547.50;;;-0.10;100.00
21203;BME280;10759;51.982;9.232;2024-01-07T02:48:40;100540.38;;;-0.27;100.00
21203;BME280;10759;51.982;9.232;2024-01-07T02:51:08;100546.63;;;-0.11;100.00
21203;BME280;10759;51.982;9.232;2024-01-07T02:53:38;100543.84;;;-0.31;100.00
21203;BME280;10759;51.982;9.232;2024-01-07T02:56:09;100543.81;;;-0.37;100.00
21203;BME280;10759;51.982;9.232;2024-01-07T02:58:37;100552.56;;;-0.35;100.00
21203;BME280;10759;51.982;9.232;2024-01-07T03:01:11;100556.91;;;-0.40;100.00
21203;BME280;10759;51.982;9.232;2024-01-07T03:03:42;100542.81;;;-0.48;100.00
21203;BME280;10759;51.982;9.232;2024-01-07T03:06:10;100565.63;;;-0.47;100.00
21203;BME280;10759;51.982;9.232;2024-01-07T03:08:38;100568.22;;;-0.53;100.00
21203;BME280;10759;51.982;9.232;2024-01-07T03:11:06;100565.59;;;-0.50;100.00
21203;BME280;10759;51.982;9.232;2024-01-07T03:13:36;100575.19;;;-0.55;100.00
21203;BME280;10759;51.982;9.232;2024-01-07T03:16:04;100568.22;;;-0.53;100.00
21203;BME280;10759;51.982;9.232;2024-01-07T03:18:38;100570.78;;;-0.58;100.00
21203;BME280;10759;51.982;9.232;2024-01-07T03:21:06;100542.72;;;-0.57;100.00
21203;BME280;10759;51.982;9.232;2024-01-07T03:23:45;100575.28;;;-0.45;100.00
21203;BME280;10759;51.982;9.232;2024-01-07T03:26:19;100578.88;;;-0.41;100.00
21203;BME280;10759;51.982;9.232;2024-01-07T03:28:47;100567.28;;;-0.57;100.00
21203;BME280;10759;51.982;9.232;2024-01-07T03:31:18;100577.28;;;-0.20;100.00
21203;BME280;10759;51.982;9.232;2024-01-07T03:33:49;100575.31;;;-0.43;100.00
21203;BME280;10759;51.982;9.232;2024-01-07T03:36:20;100588.50;;;-0.43;100.00
21203;BME280;10759;51.982;9.232;2024-01-07T03:38:48;100580.50;;;-0.54;100.00
21203;BME280;10759;51.982;9.232;2024-01-07T03:41:16;100582.22;;;-0.56;100.00
21203;BME280;10759;51.982;9.232;2024-01-07T03:43:46;100600.72;;;-0.51;100.00
21203;BME280;10759;51.982;9.232;2024-01-07T03:46:16;100599.06;;;-0.40;100.00
21203;BME280;10759;51.982;9.232;2024-01-07T03:48:44;100585.22;;;-0.17;100.00
21203;BME280;10759;51.982;9.232;2024-01-07T03:51:15;100617.78;;;-0.12;100.00
21203;BME280;10759;51.982;9.232;2024-01-07T03:53:43;100557.38;;;-0.82;100.00
21203;BME280;10759;51.982;9.232;2024-01-07T03:56:11;100623.53;;;-0.47;100.00
21203;BME280;10759;51.982;9.232;2024-01-07T03:58:39;100597.03;;;-0.66;100.00
21203;BME280;10759;51.982;9.232;2024-01-07T04:01:15;100619.31;;;-0.33;100.00
21203;BME280;10759;51.982;9.232;2024-01-07T04:03:45;100615.06;;;-0.22;100.00
21203;BME280;10759;51.982;9.232;2024-01-07T04:06:18;100623.69;;;-0.35;100.00
21203;BME280;10759;51.982;9.232;2024-01-07T04:08:47;100618.25;;;-0.50;100.00
21203;BME280;10759;51.982;9.232;2024-01-07T04:11:20;100624.97;;;-0.77;100.00
21203;BME280;10759;51.982;9.232;2024-01-07T04:13:51;100636.25;;;-0.89;100.00
21203;BME280;10759;51.982;9.232;2024-01-07T04:16:19;100629.13;;;-0.94;100.00
21203;BME280;10759;51.982;9.232;2024-01-07T04:18:49;100647.56;;;-0.96;100.00
21203;BME280;10759;51.982;9.232;2024-01-07T04:21:21;100638.81;;;-0.93;100.00
21203;BME280;10759;51.982;9.232;2024-01-07T04:23:49;100637.88;;;-0.97;100.00
21203;BME280;10759;51.982;9.232;2024-01-07T04:26:17;100642.16;;;-1.03;100.00
21203;BME280;10759;51.982;9.232;2024-01-07T04:28:45;100644.91;;;-0.97;100.00
21203;BME280;10759;51.982;9.232;2024-01-07T04:31:14;100643.03;;;-1.04;100.00
21203;BME280;10759;51.982;9.232;2024-01-07T04:33:46;100663.47;;;-0.85;100.00
21203;BME280;10759;51.982;9.232;2024-01-07T04:36:14;100659.00;;;-0.92;100.00
21203;BME280;10759;51.982;9.232;2024-01-07T04:38:49;100666.13;;;-0.83;100.00
21203;BME280;10759;51.982;9.232;2024-01-07T04:41:17;100674.66;;;-1.01;100.00
21203;BME280;10759;51.982;9.232;2024-01-07T04:43:47;100676.19;;;-1.16;100.00
21203;BME280;10759;51.982;9.232;2024-01-07T04:46:14;100676.16;;;-1.20;100.00
21203;BME280;10759;51.982;9.232;2024-01-07T04:48:44;100685.88;;;-1.15;100.00
21203;BME280;10759;51.982;9.232;2024-01-07T04:51:14;100680.66;;;-1.12;100.00
21203;BME280;10759;51.982;9.232;2024-01-07T04:53:45;100656.84;;;-1.22;100.00
21203;BME280;10759;51.982;9.232;2024-01-07T04:56:14;100678.06;;;-1.09;100.00
21203;BME280;10759;51.982;9.232;2024-01-07T04:58:44;100685.03;;;-1.12;100.00
21203;BME280;10759;51.982;9.232;2024-01-07T05:01:12;100684.34;;;-0.97;100.00
21203;BME280;10759;51.982;9.232;2024-01-07T05:03:40;100664.81;;;-1.15;100.00
21203;BME280;10759;51.982;9.232;2024-01-07T05:06:12;100704.31;;;-1.13;100.00
21203;BME280;10759;51.982;9.232;2024-01-07T05:08:41;100698.09;;;-1.17;100.00
21203;BME280;10759;51.982;9.232;2024-01-07T05:11:09;100703.47;;;-1.11;100.00
21203;BME280;10759;51.982;9.232;2024-01-07T05:13:40;100703.53;;;-1.04;100.00
21203;BME280;10759;51.982;9.232;2024-01-07T05:16:17;100715.59;;;-1.20;100.00
21203;BME280;10759;51.982;9.232;2024-01-07T05:18:45;100713.81;;;-1.21;100.00
21203;BME280;10759;51.982;9.232;2024-01-07T05:21:18;100715.56;;;-1.22;100.00
21203;BME280;10759;51.982;9.232;2024-01-07T05:23:46;100706.09;;;-1.11;100.00
21203;BME280;10759;51.982;9.232;2024-01-07T05:26:16;100700.47;;;-1.35;100.00
21203;BME280;10759;51.982;9.232;2024-01-07T05:28:45;100713.84;;;-1.20;100.00
21203;BME280;10759;51.982;9.232;2024-01-07T05:31:17;100722.88;;;-1.02;100.00
21203;BME280;10759;51.982;9.232;2024-01-07T05:33:48;100720.03;;;-1.18;100.00
21203;BME280;10759;51.982;9.232;2024-01-07T05:36:18;100734.19;;;-1.08;100.00
21203;BME280;10759;51.982;9.232;2024-01-07T05:38:46;100657.91;;;-1.66;100.00
21203;BME280;10759;51.982;9.232;2024-01-07T05:41:14;100740.88;;;-1.28;100.00
21203;BME280;10759;51.982;9.232;2024-01-07T05:43:48;100742.44;;;-1.41;100.00
21203;BME280;10759;51.982;9.232;2024-01-07T05:46:16;100747.72;;;-1.38;100.00
21203;BME280;10759;51.982;9.232;2024-01-07T05:48:46;100748.88;;;-1.22;100.00
21203;BME280;10759;51.982;9.232;2024-01-07T05:51:19;100750.56;;;-1.26;100.00
21203;BME280;10759;51.982;9.232;2024-01-07T05:53:47;100755.53;;;-1.43;100.00
21203;BME280;10759;51.982;9.232;2024-01-07T05:56:18;100741.47;;;-1.46;100.00
21203;BME280;10759;51.982;9.232;2024-01-07T05:58:48;100770.34;;;-1.49;100.00
21203;BME280;10759;51.982;9.232;2024-01-07T06:01:20;100760.84;;;-1.41;100.00
21203;BME280;10759;51.982;9.232;2024-01-07T06:03:48;100778.53;;;-1.33;100.00
21203;BME280;10759;51.982;9.232;2024-01-07T06:06:20;100743.09;;;-1.55;100.00
21203;BME280;10759;51.982;9.232;2024-01-07T06:08:49;100786.34;;;-1.37;100.00
21203;BME280;10759;51.982;9.232;2024-01-07T06:11:19;100796.63;;;-1.48;100.00
21203;BME280;10759;51.982;9.232;2024-01-07T06:13:48;100798.19;;;-1.61;100.00
21203;BME280;10759;51.982;9.232;2024-01-07T06:16:19;100808.84;;;-1.52;100.00
21203;BME280;10759;51.982;9.232;2024-01-07T06:18:52;100815.09;;;-1.46;100.00
21203;BME280;10759;51.982;9.232;2024-01-07T06:21:21;100811.50;;;-1.52;100.00
21203;BME280;10759;51.982;9.232;2024-01-07T06:23:54;100820.13;;;-1.59;100.00
21203;BME280;10759;51.982;9.232;2024-01-07T06:26:22;100806.66;;;-1.76;100.00
21203;BME280;10759;51.982;9.232;2024-01-07T06:28:51;100831.56;;;-1.57;100.00
21203;BME280;10759;51.982;9.232;2024-01-07T06:31:19;100839.34;;;-1.61;100.00
21203;BME280;10759;51.982;9.232;2024-01-07T06:33:47;100850.06;;;-1.51;100.00
21203;BME280;10759;51.982;9.232;2024-01-07T06:36:15;100851.06;;;-1.44;100.00
21203;BME280;10759;51.982;9.232;2024-01-07T06:38:43;100857.16;;;-1.46;100.00
21203;BME280;10759;51.982;9.232;2024-01-07T06:41:11;100867.63;;;-1.49;100.00
21203;BME280;10759;51.982;9.232;2024-01-07T06:43:39;100848.06;;;-1.64;100.00
21203;BME280;10759;51.982;9.232;2024-01-07T06:46:09;100877.47;;;-1.38;100.00
21203;BME280;10759;51.982;9.232;2024-01-07T06:48:37;100877.47;;;-1.38;100.00
21203;BME280;10759;51.982;9.232;2024-01-07T06:51:11;100884.28;;;-1.49;100.00
21203;BME280;10759;51.982;9.232;2024-01-07T06:53:39;100886.84;;;-1.51;100.00
21203;BME280;10759;51.982;9.232;2024-01-07T06:56:07;100875.47;;;-1.53;100.00
21203;BME280;10759;51.982;9.232;2024-01-07T06:58:36;100888.41;;;-1.62;100.00
21203;BME280;10759;51.982;9.232;2024-01-07T07:01:11;100886.69;;;-1.60;100.00
21203;BME280;10759;51.982;9.232;2024-01-07T07:03:40;100889.47;;;-1.51;100.00
21203;BME280;10759;51.982;9.232;2024-01-07T07:06:08;100891.28;;;-1.48;100.00
21203;BME280;10759;51.982;9.232;2024-01-07T07:08:37;100896.44;;;-1.54;100.00
21203;BME280;10759;51.982;9.232;2024-01-07T07:11:04;100905.34;;;-1.47;100.00
21203;BME280;10759;51.982;9.232;2024-01-07T07:13:34;100905.44;;;-1.41;100.00
21203;BME280;10759;51.982;9.232;2024-01-07T07:16:02;100896.53;;;-1.49;100.00
21203;BME280;10759;51.982;9.232;2024-01-07T07:18:31;100918.44;;;-1.49;100.00
21203;BME280;10759;51.982;9.232;2024-01-07T07:21:00;100919.06;;;-1.62;100.00
21203;BME280;10759;51.982;9.232;2024-01-07T07:23:31;100923.41;;;-1.63;100.00
21203;BME280;10759;51.982;9.232;2024-01-07T07:25:59;100929.66;;;-1.58;100.00
21203;BME280;10759;51.982;9.232;2024-01-07T07:28:30;100942.78;;;-1.58;100.00
21203;BME280;10759;51.982;9.232;2024-01-07T07:31:00;100941.06;;;-1.57;100.00
21203;BME280;10759;51.982;9.232;2024-01-07T07:33:33;100940.94;;;-1.65;100.00
21203;BME280;10759;51.982;9.232;2024-01-07T07:36:05;100945.44;;;-1.58;100.00
21203;BME280;10759;51.982;9.232;2024-01-07T07:38:33;100949.13;;;-1.49;100.00
21203;BME280;10759;51.982;9.232;2024-01-07T07:41:01;100961.09;;;-1.64;100.00
21203;BME280;10759;51.982;9.232;2024-01-07T07:43:30;100962.78;;;-1.66;100.00
21203;BME280;10759;51.982;9.232;2024-01-07T07:45:58;100973.09;;;-1.77;100.00
21203;BME280;10759;51.982;9.232;2024-01-07T07:48:32;100973.81;;;-1.82;100.00
21203;BME280;10759;51.982;9.232;2024-01-07T07:51:00;100971.28;;;-1.78;100.00
21203;BME280;10759;51.982;9.232;2024-01-07T07:53:28;100978.91;;;-1.91;100.00
21203;BME280;10759;51.982;9.232;2024-01-07T07:55:56;100993.78;;;-1.90;100.00
21203;BME280;10759;51.982;9.232;2024-01-07T07:58:26;101003.59;;;-1.83;100.00
21203;BME280;10759;51.982;9.232;2024-01-07T08:00:57;100998.09;;;-1.94;100.00
21203;BME280;10759;51.982;9.232;2024-01-07T08:03:25;100962.47;;;-2.19;100.00
21203;BME280;10759;51.982;9.232;2024-01-07T08:05:55;101011.38;;;-1.88;100.00
21203;BME280;10759;51.982;9.232;2024-01-07T08:08:22;101011.16;;;-1.97;100.00
21203;BME280;10759;51.982;9.232;2024-01-07T08:10:52;101019.13;;;-1.92;100.00
21203;BME280;10759;51.982;9.232;2024-01-07T08:13:22;101027.13;;;-1.89;100.00
21203;BME280;10759;51.982;9.232;2024-01-07T08:15:50;101032.72;;;-1.73;100.00
21203;BME280;10759;51.982;9.232;2024-01-07T08:18:18;101037.63;;;-1.89;100.00
21203;BME280;10759;51.982;9.232;2024-01-07T08:20:48;101046.16;;;-1.98;100.00
21203;BME280;10759;51.982;9.232;2024-01-07T08:23:18;101043.41;;;-2.03;100.00
21203;BME280;10759;51.982;9.232;2024-01-07T08:25:47;101046.16;;;-1.98;100.00
21203;BME280;10759;51.982;9.232;2024-01-07T08:28:18;101051.59;;;-1.90;100.00
21203;BME280;10759;51.982;9.232;2024-01-07T08:30:51;101052.38;;;-1.95;100.00
21203;BME280;10759;51.982;9.232;2024-01-07T08:33:23;101055.78;;;-1.99;100.00
21203;BME280;10759;51.982;9.232;2024-01-07T08:35:54;101053.03;;;-1.67;100.00
21203;BME280;10759;51.982;9.232;2024-01-07T08:38:24;101066.81;;;-1.77;100.00
21203;BME280;10759;51.982;9.232;2024-01-07T08:40:52;101078.50;;;-1.64;100.00
21203;BME280;10759;51.982;9.232;2024-01-07T08:43:20;101054.84;;;-1.63;100.00
21203;BME280;10759;51.982;9.232;2024-01-07T08:45:48;101087.97;;;-1.71;99.98
21203;BME280;10759;51.982;9.232;2024-01-07T08:48:17;101089.13;;;-1.95;100.00
21203;BME280;10759;51.982;9.232;2024-01-07T08:50:45;101100.03;;;-1.79;100.00
21203;BME280;10759;51.982;9.232;2024-01-07T08:53:13;101101.50;;;-1.90;100.00
21203;BME280;10759;51.982;9.232;2024-01-07T08:55:42;101109.34;;;-1.93;100.00
21203;BME280;10759;51.982;9.232;2024-01-07T08:58:10;101094.31;;;-1.98;100.00
21203;BME280;10759;51.982;9.232;2024-01-07T09:00:38;101103.22;;;-1.92;100.00
21203;BME280;10759;51.982;9.232;2024-01-07T09:03:13;101115.06;;;-1.74;100.00
21203;BME280;10759;51.982;9.232;2024-01-07T09:05:41;101115.81;;;-1.79;100.00
21203;BME280;10759;51.982;9.232;2024-01-07T09:08:09;101125.28;;;-1.86;99.92
21203;BME280;10759;51.982;9.232;2024-01-07T09:10:45;101126.03;;;-1.91;100.00
21203;BME280;10759;51.982;9.232;2024-01-07T09:13:13;101130.66;;;-1.81;100.00
21203;BME280;10759;51.982;9.232;2024-01-07T09:15:45;101136.25;;;-1.66;99.89
21203;BME280;10759;51.982;9.232;2024-01-07T09:18:13;101136.25;;;-1.66;99.10
21203;BME280;10759;51.982;9.232;2024-01-07T09:20:44;101118.03;;;-1.60;100.00
21203;BME280;10759;51.982;9.232;2024-01-07T09:23:12;101147.88;;;-1.56;99.93
21203;BME280;10759;51.982;9.232;2024-01-07T09:25:46;101144.38;;;-1.93;100.00
21203;BME280;10759;51.982;9.232;2024-01-07T09:28:15;101146.41;;;-1.81;99.37
21203;BME280;10759;51.982;9.232;2024-01-07T09:30:45;101133.91;;;-1.91;99.60
21203;BME280;10759;51.982;9.232;2024-01-07T09:33:13;101131.59;;;-1.79;97.78
21203;BME280;10759;51.982;9.232;2024-01-07T09:35:50;101128.41;;;-2.01;97.68
21203;BME280;10759;51.982;9.232;2024-01-07T09:38:19;101164.88;;;-1.78;97.43
21203;BME280;10759;51.982;9.232;2024-01-07T09:40:49;101161.19;;;-1.86;97.47
21203;BME280;10759;51.982;9.232;2024-01-07T09:43:17;101172.94;;;-1.70;98.09
21203;BME280;10759;51.982;9.232;2024-01-07T09:45:46;101169.50;;;-1.68;97.64
21203;BME280;10759;51.982;9.232;2024-01-07T09:48:14;101142.50;;;-1.97;97.90
21203;BME280;10759;51.982;9.232;2024-01-07T09:50:43;101159.03;;;-1.66;98.98
21203;BME280;10759;51.982;9.232;2024-01-07T09:53:15;101166.69;;;-1.77;98.16
21203;BME280;10759;51.982;9.232;2024-01-07T09:55:55;101165.56;;;-1.85;98.39
21203;BME280;10759;51.982;9.232;2024-01-07T09:58:29;101135.47;;;-1.98;98.68
21203;BME280;10759;51.982;9.232;2024-01-07T10:00:59;101161.09;;;-1.53;99.23
21203;BME280;10759;51.982;9.232;2024-01-07T10:03:32;101172.94;;;-1.72;98.60
21203;BME280;10759;51.982;9.232;2024-01-07T10:06:04;101172.22;;;-1.65;100.00
21203;BME280;10759;51.982;9.232;2024-01-07T10:08:35;101168.91;;;-1.18;99.28
21203;BME280;10759;51.982;9.232;2024-01-07T10:11:06;101178.59;;;-1.16;98.03
21203;BME280;10759;51.982;9.232;2024-01-07T10:13:37;101176.78;;;-1.20;96.20
21203;BME280;10759;51.982;9.232;2024-01-07T10:16:07;101181.00;;;-1.63;98.74
21203;BME280;10759;51.982;9.232;2024-01-07T10:18:38;101179.84;;;-1.39;98.94
21203;BME280;10759;51.982;9.232;2024-01-07T10:21:06;101176.78;;;-1.20;99.44
21203;BME280;10759;51.982;9.232;2024-01-07T10:23:38;101179.50;;;-1.53;98.24
21203;BME280;10759;51.982;9.232;2024-01-07T10:26:07;101185.91;;;-1.42;100.00
21203;BME280;10759;51.982;9.232;2024-01-07T10:28:52;101184.00;;;-1.49;99.50
21203;BME280;10759;51.982;9.232;2024-01-07T10:31:21;101174.88;;;-1.27;100.00
21203;BME280;10759;51.982;9.232;2024-01-07T10:33:50;101153.25;;;-1.52;99.72
21203;BME280;10759;51.982;9.232;2024-01-07T10:36:20;101173.69;;;-1.40;98.35
21203;BME280;10759;51.982;9.232;2024-01-07T10:38:49;101174.28;;;-1.52;98.63
21203;BME280;10759;51.982;9.232;2024-01-07T10:41:24;101181.38;;;-1.49;99.33
21203;BME280;10759;51.982;9.232;2024-01-07T10:43:53;101179.97;;;-1.33;99.75
21203;BME280;10759;51.982;9.232;2024-01-07T10:46:23;101188.31;;;-1.51;100.00
21203;BME280;10759;51.982;9.232;2024-01-07T10:49:00;101192.00;;;-1.44;98.71
21203;BME280;10759;51.982;9.232;2024-01-07T10:51:36;101187.91;;;-1.32;97.18
21203;BME280;10759;51.982;9.232;2024-01-07T10:54:05;101187.84;;;-1.35;97.61
21203;BME280;10759;51.982;9.232;2024-01-07T10:56:45;101186.91;;;-1.37;97.01
21203;BME280;10759;51.982;9.232;2024-01-07T10:59:13;101189.88;;;-1.23;96.01
21203;BME280;10759;51.982;9.232;2024-01-07T11:01:41;101182.41;;;-1.42;95.60
21203;BME280;10759;51.982;9.232;2024-01-07T11:04:15;101181.34;;;-1.13;98.17
21203;BME280;10759;51.982;9.232;2024-01-07T11:06:55;101188.94;;;-1.25;95.55
21203;BME280;10759;51.982;9.232;2024-01-07T11:09:32;101187.31;;;-1.20;96.83
21203;BME280;10759;51.982;9.232;2024-01-07T11:12:03;101174.31;;;-1.12;95.51
21203;BME280;10759;51.982;9.232;2024-01-07T11:14:35;101185.44;;;-1.24;97.39
21203;BME280;10759;51.982;9.232;2024-01-07T11:17:12;101188.91;;;-1.26;97.26
21203;BME280;10759;51.982;9.232;2024-01-07T11:19:51;101178.19;;;-1.34;98.63
21203;BME280;10759;51.982;9.232;2024-01-07T11:22:22;101183.47;;;-1.34;98.96
21203;BME280;10759;51.982;9.232;2024-01-07T11:24:54;101183.22;;;-1.45;99.27
21203;BME280;10759;51.982;9.232;2024-01-07T11:27:29;101189.31;;;-1.47;100.00
21203;BME280;10759;51.982;9.232;2024-01-07T11:30:02;101183.19;;;-1.46;100.00
21203;BME280;10759;51.982;9.232;2024-01-07T11:32:36;101190.00;;;-1.17;100.00
21203;BME280;10759;51.982;9.232;2024-01-07T11:35:06;101190.53;;;-1.32;100.00
21203;BME280;10759;51.982;9.232;2024-01-07T11:37:34;101184.78;;;-1.14;100.00
21203;BME280;10759;51.982;9.232;2024-01-07T11:40:03;101184.28;;;-0.97;100.00
21203;BME280;10759;51.982;9.232;2024-01-07T11:42:35;101174.59;;;-1.00;100.00
21203;BME280;10759;51.982;9.232;2024-01-07T11:45:06;101181.59;;;-1.38;100.00
21203;BME280;10759;51.982;9.232;2024-01-07T11:47:37;101137.25;;;-1.61;100.00
21203;BME280;10759;51.982;9.232;2024-01-07T11:50:06;101195.63;;;-1.39;100.00
21203;BME280;10759;51.982;9.232;2024-01-07T11:52:34;101182.81;;;-1.25;100.00
21203;BME280;10759;51.982;9.232;2024-01-07T11:55:11;101188.38;;;-1.49;100.00
21203;BME280;10759;51.982;9.232;2024-01-07T11:57:42;101196.66;;;-1.33;100.00
21203;BME280;10759;51.982;9.232;2024-01-07T12:00:13;101193.50;;;-1.16;100.00
21203;BME280;10759;51.982;9.232;2024-01-07T12:02:41;101188.22;;;-1.18;100.00
21203;BME280;10759;51.982;9.232;2024-01-07T12:05:10;101185.38;;;-1.27;100.00
21203;BME280;10759;51.982;9.232;2024-01-07T12:07:39;101188.94;;;-1.25;100.00
21203;BME280;10759;51.982;9.232;2024-01-07T12:10:11;101188.84;;;-1.28;100.00
21203;BME280;10759;51.982;9.232;2024-01-07T12:12:41;101152.19;;;-1.22;100.00
21203;BME280;10759;51.982;9.232;2024-01-07T12:15:09;101185.09;;;-1.39;100.00
21203;BME280;10759;51.982;9.232;2024-01-07T12:17:39;101193.06;;;-0.98;100.00
21203;BME280;10759;51.982;9.232;2024-01-07T12:20:10;101193.13;;;-0.95;100.00
21203;BME280;10759;51.982;9.232;2024-01-07T12:22:39;101204.28;;;-1.05;100.00
21203;BME280;10759;51.982;9.232;2024-01-07T12:25:09;101202.59;;;-1.02;100.00
21203;BME280;10759;51.982;9.232;2024-01-07T12:27:44;101202.22;;;-0.79;100.00
21203;BME280;10759;51.982;9.232;2024-01-07T12:30:15;101198.16;;;-1.04;100.00
21203;BME280;10759;51.982;9.232;2024-01-07T12:32:51;101174.69;;;-1.35;100.00
21203;BME280;10759;51.982;9.232;2024-01-07T12:35:19;101198.53;;;-1.27;100.00
21203;BME280;10759;51.982;9.232;2024-01-07T12:37:49;101202.16;;;-1.22;100.00
21203;BME280;10759;51.982;9.232;2024-01-07T12:40:24;101204.44;;;-1.37;100.00
21203;BME280;10759;51.982;9.232;2024-01-07T12:42:59;101196.75;;;-1.28;100.00
21203;BME280;10759;51.982;9.232;2024-01-07T12:45:29;101197.50;;;-0.94;100.00
21203;BME280;10759;51.982;9.232;2024-01-07T12:48:00;101186.72;;;-1.44;100.00
21203;BME280;10759;51.982;9.232;2024-01-07T12:50:30;101197.03;;;-1.16;100.00
21203;BME280;10759;51.982;9.232;2024-01-07T12:53:01;101211.22;;;-1.09;100.00
21203;BME280;10759;51.982;9.232;2024-01-07T12:55:29;101213.00;;;-0.69;100.00
21203;BME280;10759;51.982;9.232;2024-01-07T12:57:58;101216.59;;;-1.04;100.00